createdAt,value
2023-04-09T00:01:21.722Z,18.00
2023-04-09T00:06:24.321Z,19.63
2023-04-09T00:11:27.141Z,12.83
2023-04-09T00:16:29.861Z,15.75
2023-04-09T00:21:35.049Z,13.10
2023-04-09T00:26:37.617Z,12.15
2023-04-09T00:31:40.442Z,14.05
2023-04-09T00:36:43.004Z,14.03
2023-04-09T00:41:46.154Z,16.52
2023-04-09T00:46:48.860Z,15.47
2023-04-09T00:51:51.867Z,13.52
2023-04-09T00:56:57.011Z,13.95
2023-04-09T01:01:59.472Z,13.60
2023-04-09T01:07:31.443Z,17.15
2023-04-09T01:12:47.229Z,17.77
2023-04-09T01:18:08.754Z,18.95
2023-04-09T01:23:11.409Z,10.00
2023-04-09T01:28:34.154Z,16.77
2023-04-09T01:33:38.522Z,13.15
2023-04-09T01:38:43.312Z,10.80
2023-04-09T01:43:46.879Z,12.80
2023-04-09T01:48:50.246Z,13.60
2023-04-09T01:53:53.078Z,15.37
2023-04-09T01:58:57.137Z,11.75
2023-04-09T02:04:04.451Z,15.27
2023-04-09T02:09:09.557Z,13.02
2023-04-09T02:14:12.850Z,14.50
2023-04-09T02:19:15.960Z,12.07
2023-04-09T02:24:18.478Z,13.45
2023-04-09T02:29:21.149Z,12.23
2023-04-09T02:34:24.101Z,10.57
2023-04-09T02:39:27.580Z,14.02
2023-04-09T02:44:30.192Z,13.17
2023-04-09T02:49:33.158Z,11.57
2023-04-09T02:54:35.657Z,11.50
2023-04-09T02:59:39.314Z,10.68
2023-04-09T03:04:44.476Z,14.30
2023-04-09T03:09:46.985Z,12.93
2023-04-09T03:14:49.678Z,11.45
2023-04-09T03:19:52.730Z,15.13
2023-04-09T03:24:56.725Z,13.07
2023-04-09T03:29:59.462Z,11.90
2023-04-09T03:35:10.130Z,16.90
2023-04-09T03:40:14.371Z,13.07
2023-04-09T03:45:17.085Z,14.57
2023-04-09T03:50:22.830Z,10.35
2023-04-09T03:55:29.822Z,12.05
2023-04-09T04:00:34.642Z,12.70
2023-04-09T04:06:03.774Z,9.88
2023-04-09T04:11:17.175Z,11.50
2023-04-09T04:16:20.523Z,12.25
2023-04-09T04:21:23.125Z,13.57
2023-04-09T04:26:32.907Z,13.93
2023-04-09T04:31:35.811Z,14.98
2023-04-09T04:36:38.758Z,10.50
2023-04-09T04:41:43.511Z,14.35
2023-04-09T04:46:51.109Z,18.50
2023-04-09T04:51:53.775Z,27.17
2023-04-09T04:56:56.685Z,15.70
2023-04-09T05:02:17.648Z,26.10
2023-04-09T05:07:43.527Z,35.65
2023-04-09T05:12:46.219Z,23.40
2023-04-09T05:17:56.760Z,23.30
2023-04-09T05:23:00.006Z,18.45
2023-04-09T05:28:07.486Z,13.90
2023-04-09T05:33:11.226Z,12.27
2023-04-09T05:38:14.241Z,10.20
2023-04-09T05:43:19.949Z,10.50
2023-04-09T05:48:23.234Z,9.90
2023-04-09T05:53:27.716Z,10.07
2023-04-09T05:58:30.489Z,8.73
2023-04-09T06:03:34.289Z,12.82
2023-04-09T06:08:37.058Z,19.70
2023-04-09T06:13:39.978Z,16.08
2023-04-09T06:18:42.889Z,17.47
2023-04-09T06:23:45.868Z,11.20
2023-04-09T06:28:48.337Z,10.60
2023-04-09T06:33:51.430Z,13.93
2023-04-09T06:38:54.650Z,11.07
2023-04-09T06:43:57.130Z,7.93
2023-04-09T06:48:59.661Z,9.02
2023-04-09T06:54:02.075Z,5.95
2023-04-09T06:59:04.534Z,10.60
2023-04-09T07:04:07.350Z,9.63
2023-04-09T07:09:10.552Z,7.07
2023-04-09T07:14:16.174Z,6.72
2023-04-09T07:19:18.638Z,6.40
2023-04-09T07:24:21.264Z,10.47
2023-04-09T07:29:23.818Z,6.43
2023-04-09T07:34:26.457Z,5.23
2023-04-09T07:39:28.999Z,7.88
2023-04-09T07:44:35.283Z,8.77
2023-04-09T07:49:38.362Z,7.10
2023-04-09T07:54:41.170Z,7.43
2023-04-09T07:59:43.786Z,7.10
2023-04-09T08:04:46.699Z,4.70
2023-04-09T08:09:49.579Z,8.15
2023-04-09T08:14:53.006Z,8.13
2023-04-09T08:19:55.716Z,5.93
2023-04-09T08:25:01.467Z,6.37
2023-04-09T08:30:05.777Z,5.65
2023-04-09T08:35:09.379Z,5.28
2023-04-09T08:40:12.371Z,8.87
2023-04-09T08:45:15.187Z,5.53
2023-04-09T08:50:17.969Z,4.10
2023-04-09T08:55:20.710Z,9.17
2023-04-09T09:00:23.333Z,10.95
2023-04-09T09:05:39.297Z,10.87
2023-04-09T09:10:45.071Z,9.43
2023-04-09T09:15:50.266Z,5.47
2023-04-09T09:20:52.898Z,5.60
2023-04-09T09:25:55.708Z,6.00
2023-04-09T09:31:09.117Z,6.65
2023-04-09T09:36:12.242Z,9.27
2023-04-09T09:41:19.785Z,6.10
2023-04-09T09:46:25.239Z,8.38
2023-04-09T09:51:31.392Z,5.38
2023-04-09T09:56:39.780Z,7.90
2023-04-09T10:01:44.167Z,6.53
2023-04-09T10:06:48.600Z,7.05
2023-04-09T10:11:51.498Z,7.80
2023-04-09T10:16:54.220Z,7.22
2023-04-09T10:22:02.932Z,6.32
2023-04-09T10:27:17.334Z,5.30
2023-04-09T10:32:22.031Z,7.27
2023-04-09T10:37:26.642Z,9.18
2023-04-09T10:42:42.183Z,8.90
2023-04-09T10:47:46.489Z,6.63
2023-04-09T10:52:53.936Z,5.72
2023-04-09T10:57:56.509Z,5.57
2023-04-09T11:03:33.442Z,8.33
2023-04-09T11:08:38.243Z,8.20
2023-04-09T11:13:42.122Z,9.98
2023-04-09T11:18:44.908Z,8.33
2023-04-09T11:23:54.153Z,9.60
2023-04-09T11:28:58.362Z,8.90
2023-04-09T11:34:03.957Z,7.13
2023-04-09T11:39:06.901Z,7.13
2023-04-09T11:44:09.556Z,7.25
2023-04-09T11:49:16.403Z,10.75
2023-04-09T11:54:19.016Z,7.03
2023-04-09T11:59:22.152Z,8.75
2023-04-09T12:04:25.079Z,6.28
2023-04-09T12:09:27.932Z,7.93
2023-04-09T12:14:30.564Z,7.87
2023-04-09T12:19:36.957Z,8.65
2023-04-09T12:24:39.548Z,10.68
2023-04-09T12:29:42.123Z,9.87
2023-04-09T12:34:44.687Z,9.48
2023-04-09T12:39:48.274Z,10.45
2023-04-09T12:44:50.920Z,9.00
2023-04-09T12:49:54.819Z,10.73
2023-04-09T12:54:57.533Z,10.00
2023-04-09T13:00:01.586Z,8.30
2023-04-09T13:05:06.165Z,10.83
2023-04-09T13:10:34.670Z,9.30
2023-04-09T13:15:57.563Z,14.02
2023-04-09T13:21:20.138Z,8.47
2023-04-09T13:26:22.815Z,6.60
2023-04-09T13:31:41.305Z,6.68
2023-04-09T13:37:05.702Z,10.53
2023-04-09T13:42:13.969Z,7.60
2023-04-09T13:47:36.218Z,8.90
2023-04-09T13:52:57.300Z,7.83
2023-04-09T13:58:18.626Z,7.00
2023-04-09T14:03:21.718Z,10.65
2023-04-09T14:08:24.280Z,7.82
2023-04-09T14:13:27.054Z,10.43
2023-04-09T14:18:48.178Z,6.88
2023-04-09T14:23:51.239Z,12.20
2023-04-09T14:28:54.042Z,13.13
2023-04-09T14:33:57.037Z,7.65
2023-04-09T14:39:00.313Z,10.68
2023-04-09T14:44:03.108Z,9.57
2023-04-09T14:49:05.696Z,6.93
2023-04-09T14:54:08.234Z,9.10
2023-04-09T14:59:20.396Z,9.68
2023-04-09T15:04:24.586Z,11.57
2023-04-09T15:09:27.378Z,15.30
2023-04-09T15:14:33.830Z,11.15
2023-04-09T15:19:36.440Z,9.57
2023-04-09T15:24:39.069Z,13.10
2023-04-09T15:29:41.732Z,13.50
2023-04-09T15:34:44.895Z,11.43
2023-04-09T15:39:49.722Z,13.17
2023-04-09T15:44:52.320Z,13.43
2023-04-09T15:49:56.207Z,14.43
2023-04-09T15:54:58.930Z,9.67
2023-04-09T16:00:01.614Z,13.63
2023-04-09T16:05:07.815Z,14.57
2023-04-09T16:10:10.682Z,11.40
2023-04-09T16:15:13.240Z,13.80
2023-04-09T16:20:15.965Z,14.37
2023-04-09T16:25:18.503Z,15.93
2023-04-09T16:30:21.488Z,11.10
2023-04-09T16:35:24.130Z,14.30
2023-04-09T16:40:26.922Z,14.15
2023-04-09T16:45:30.104Z,14.10
2023-04-09T16:55:53.237Z,13.47
2023-04-09T17:00:55.806Z,15.95
2023-04-09T17:05:58.418Z,13.63
2023-04-09T17:11:04.033Z,16.47
2023-04-09T17:16:06.976Z,14.35
2023-04-09T17:21:09.838Z,14.60
2023-04-09T17:26:12.468Z,19.25
2023-04-09T17:31:16.203Z,19.15
2023-04-09T17:36:20.325Z,11.77
2023-04-09T17:41:23.404Z,15.13
2023-04-09T17:46:26.106Z,10.43
2023-04-09T17:51:29.029Z,20.42
2023-04-09T17:56:35.182Z,10.55
2023-04-09T18:01:37.865Z,13.23
2023-04-09T18:06:40.513Z,24.02
2023-04-09T18:11:43.169Z,21.47
2023-04-09T18:16:45.814Z,16.52
2023-04-09T18:21:48.469Z,12.00
2023-04-09T18:26:51.177Z,14.87
2023-04-09T18:31:57.665Z,20.98
2023-04-09T18:37:00.240Z,21.00
2023-04-09T18:42:03.868Z,25.52
2023-04-09T18:47:09.615Z,21.08
2023-04-09T18:52:12.244Z,22.90
2023-04-09T18:57:14.814Z,28.25
2023-04-09T19:02:17.370Z,21.60
2023-04-09T19:07:20.115Z,25.25
2023-04-09T19:12:22.888Z,26.13
2023-04-09T19:17:25.518Z,20.33
2023-04-09T19:22:28.452Z,22.40
2023-04-09T19:27:31.126Z,23.90
2023-04-09T19:32:33.647Z,21.38
2023-04-09T19:37:36.343Z,22.13
2023-04-09T19:42:38.991Z,37.10
2023-04-09T19:47:41.702Z,18.65
2023-04-09T19:52:44.272Z,18.93
2023-04-09T19:57:49.281Z,21.33
2023-04-09T20:02:52.046Z,15.57
2023-04-09T20:07:54.935Z,14.20
2023-04-09T20:12:58.194Z,16.88
2023-04-09T20:18:00.825Z,18.47
2023-04-09T20:23:05.955Z,16.85
2023-04-09T20:28:10.165Z,12.95
2023-04-09T20:33:13.087Z,14.43
2023-04-09T20:38:15.810Z,12.38
2023-04-09T20:43:18.416Z,17.17
2023-04-09T20:48:21.284Z,15.95
2023-04-09T20:53:26.728Z,13.98
2023-04-09T20:58:31.293Z,14.83
2023-04-09T21:03:35.209Z,17.00
2023-04-09T21:08:38.692Z,15.83
2023-04-09T21:13:53.890Z,14.85
2023-04-09T21:18:57.796Z,16.90
2023-04-09T21:24:00.530Z,22.57
2023-04-09T21:29:04.609Z,20.45
2023-04-09T21:34:07.138Z,20.97
2023-04-09T21:39:09.537Z,22.90
2023-04-09T21:44:12.066Z,22.88
2023-04-09T21:49:14.804Z,21.97
2023-04-09T21:54:17.238Z,19.13
2023-04-09T21:59:19.759Z,16.57
2023-04-09T22:04:22.655Z,20.33
2023-04-09T22:09:25.698Z,15.55
2023-04-09T22:14:29.740Z,11.20
2023-04-09T22:19:32.703Z,15.05
2023-04-09T22:24:35.288Z,12.17
2023-04-09T22:29:38.203Z,15.43
2023-04-09T22:34:40.875Z,16.42
2023-04-09T22:39:43.822Z,11.43
2023-04-09T22:44:46.407Z,24.65
2023-04-09T22:49:53.179Z,16.53
2023-04-09T22:54:55.851Z,17.83
2023-04-09T22:59:58.645Z,18.98
2023-04-09T23:05:02.429Z,19.00
2023-04-09T23:10:06.970Z,19.85
2023-04-09T23:15:09.935Z,19.77
2023-04-09T23:20:15.534Z,28.52
2023-04-09T23:25:18.839Z,19.73
2023-04-09T23:30:22.003Z,19.40
2023-04-09T23:35:24.534Z,11.43
2023-04-09T23:40:27.742Z,12.10
2023-04-09T23:45:30.709Z,16.15
2023-04-09T23:50:33.792Z,14.82
2023-04-09T23:55:41.559Z,12.97
